sensor_id;sensor_type;location;lat;lon;timestamp;temperature;humidity
18876;DHT22;9570;50.854;13.778;2023-10-31T00:01:08;15.40;99.90
18876;DHT22;9570;50.854;13.778;2023-10-31T00:03:34;15.30;99.90
18876;DHT22;9570;50.854;13.778;2023-10-31T00:05:59;15.30;99.90
18876;DHT22;9570;50.854;13.778;2023-10-31T00:08:25;15.30;99.90
18876;DHT22;9570;50.854;13.778;2023-10-31T00:10:50;15.30;99.90
18876;DHT22;9570;50.854;13.778;2023-10-31T00:13:16;15.30;99.90
18876;DHT22;9570;50.854;13.778;2023-10-31T00:15:41;15.20;99.90
18876;DHT22;9570;50.854;13.778;2023-10-31T00:18:07;15.20;99.90
18876;DHT22;9570;50.854;13.778;2023-10-31T00:20:32;15.20;99.90
18876;DHT22;9570;50.854;13.778;2023-10-31T00:22:58;15.20;99.90
18876;DHT22;9570;50.854;13.778;2023-10-31T00:25:23;15.10;99.90
18876;DHT22;9570;50.854;13.778;2023-10-31T00:27:49;15.00;99.90
18876;DHT22;9570;50.854;13.778;2023-10-31T00:30:14;15.00;99.90
18876;DHT22;9570;50.854;13.778;2023-10-31T00:32:40;15.00;99.90
18876;DHT22;9570;50.854;13.778;2023-10-31T00:35:06;15.00;99.90
18876;DHT22;9570;50.854;13.778;2023-10-31T00:37:31;15.10;99.90
18876;DHT22;9570;50.854;13.778;2023-10-31T00:39:57;15.00;99.90
18876;DHT22;9570;50.854;13.778;2023-10-31T00:42:22;15.10;99.90
18876;DHT22;9570;50.854;13.778;2023-10-31T00:44:48;15.10;99.90
18876;DHT22;9570;50.854;13.778;2023-10-31T00:47:13;15.00;99.90
18876;DHT22;9570;50.854;13.778;2023-10-31T00:49:39;15.00;99.90
18876;DHT22;9570;50.854;13.778;2023-10-31T00:52:05;14.90;99.90
18876;DHT22;9570;50.854;13.778;2023-10-31T00:54:31;14.90;99.90
18876;DHT22;9570;50.854;13.778;2023-10-31T00:56:56;14.90;99.90
18876;DHT22;9570;50.854;13.778;2023-10-31T00:59:21;14.90;99.90
18876;DHT22;9570;50.854;13.778;2023-10-31T01:01:47;14.80;99.90
18876;DHT22;9570;50.854;13.778;2023-10-31T01:04:12;14.70;99.90
18876;DHT22;9570;50.854;13.778;2023-10-31T01:06:42;14.70;99.90
18876;DHT22;9570;50.854;13.778;2023-10-31T01:09:07;14.80;99.90
18876;DHT22;9570;50.854;13.778;2023-10-31T01:11:33;14.80;99.90
18876;DHT22;9570;50.854;13.778;2023-10-31T01:13:58;14.80;99.90
18876;DHT22;9570;50.854;13.778;2023-10-31T01:16:24;14.80;99.90
18876;DHT22;9570;50.854;13.778;2023-10-31T01:18:49;14.80;99.90
18876;DHT22;9570;50.854;13.778;2023-10-31T01:21:15;14.80;99.90
18876;DHT22;9570;50.854;13.778;2023-10-31T01:23:40;14.70;99.90
18876;DHT22;9570;50.854;13.778;2023-10-31T01:26:06;14.70;99.90
18876;DHT22;9570;50.854;13.778;2023-10-31T01:28:31;14.70;99.90
18876;DHT22;9570;50.854;13.778;2023-10-31T01:30:56;14.70;99.90
18876;DHT22;9570;50.854;13.778;2023-10-31T01:33:22;14.70;99.90
18876;DHT22;9570;50.854;13.778;2023-10-31T01:35:47;14.70;99.90
18876;DHT22;9570;50.854;13.778;2023-10-31T01:38:13;14.70;99.90
18876;DHT22;9570;50.854;13.778;2023-10-31T01:40:39;14.70;99.90
18876;DHT22;9570;50.854;13.778;2023-10-31T01:43:04;14.70;99.90
18876;DHT22;9570;50.854;13.778;2023-10-31T01:45:30;14.50;99.90
18876;DHT22;9570;50.854;13.778;2023-10-31T01:47:56;14.50;99.90
18876;DHT22;9570;50.854;13.778;2023-10-31T01:50:21;14.40;99.90
18876;DHT22;9570;50.854;13.778;2023-10-31T01:52:47;14.40;99.90
18876;DHT22;9570;50.854;13.778;2023-10-31T01:55:13;14.40;99.90
18876;DHT22;9570;50.854;13.778;2023-10-31T01:57:40;14.40;99.90
18876;DHT22;9570;50.854;13.778;2023-10-31T02:00:06;14.50;99.90
18876;DHT22;9570;50.854;13.778;2023-10-31T02:02:33;14.50;99.90
18876;DHT22;9570;50.854;13.778;2023-10-31T02:04:59;14.40;99.90
18876;DHT22;9570;50.854;13.778;2023-10-31T02:07:25;14.40;99.90
18876;DHT22;9570;50.854;13.778;2023-10-31T02:09:50;14.40;99.90
18876;DHT22;9570;50.854;13.778;2023-10-31T02:12:36;14.00;99.90
18876;DHT22;9570;50.854;13.778;2023-10-31T02:15:02;14.00;99.90
18876;DHT22;9570;50.854;13.778;2023-10-31T02:17:28;14.10;99.90
18876;DHT22;9570;50.854;13.778;2023-10-31T02:19:54;14.20;99.90
18876;DHT22;9570;50.854;13.778;2023-10-31T02:22:20;14.30;99.90
18876;DHT22;9570;50.854;13.778;2023-10-31T02:24:45;14.30;99.90
18876;DHT22;9570;50.854;13.778;2023-10-31T02:27:11;14.30;99.90
18876;DHT22;9570;50.854;13.778;2023-10-31T02:29:38;14.30;99.90
18876;DHT22;9570;50.854;13.778;2023-10-31T02:32:04;14.30;99.90
18876;DHT22;9570;50.854;13.778;2023-10-31T02:34:30;14.30;99.90
18876;DHT22;9570;50.854;13.778;2023-10-31T02:36:55;14.30;99.90
18876;DHT22;9570;50.854;13.778;2023-10-31T02:39:20;14.30;99.90
18876;DHT22;9570;50.854;13.778;2023-10-31T02:41:46;14.40;99.90
18876;DHT22;9570;50.854;13.778;2023-10-31T02:44:11;14.40;99.90
18876;DHT22;9570;50.854;13.778;2023-10-31T02:46:38;14.40;99.90
18876;DHT22;9570;50.854;13.778;2023-10-31T02:49:03;14.50;99.90
18876;DHT22;9570;50.854;13.778;2023-10-31T02:51:29;14.50;99.90
18876;DHT22;9570;50.854;13.778;2023-10-31T02:53:54;14.20;99.90
18876;DHT22;9570;50.854;13.778;2023-10-31T02:56:20;13.90;99.90
18876;DHT22;9570;50.854;13.778;2023-10-31T02:58:45;13.90;99.90
18876;DHT22;9570;50.854;13.778;2023-10-31T03:01:11;13.80;99.90
18876;DHT22;9570;50.854;13.778;2023-10-31T03:03:36;13.80;99.90
18876;DHT22;9570;50.854;13.778;2023-10-31T03:06:02;13.70;99.90
18876;DHT22;9570;50.854;13.778;2023-10-31T03:08:29;13.50;99.90
18876;DHT22;9570;50.854;13.778;2023-10-31T03:10:55;13.60;99.90
18876;DHT22;9570;50.854;13.778;2023-10-31T03:13:20;13.60;99.90
18876;DHT22;9570;50.854;13.778;2023-10-31T03:15:47;13.70;99.90
18876;DHT22;9570;50.854;13.778;2023-10-31T03:18:12;13.60;99.90
18876;DHT22;9570;50.854;13.778;2023-10-31T03:20:40;13.50;99.90
18876;DHT22;9570;50.854;13.778;2023-10-31T03:23:06;13.30;99.90
18876;DHT22;9570;50.854;13.778;2023-10-31T03:25:31;13.40;99.90
18876;DHT22;9570;50.854;13.778;2023-10-31T03:27:57;13.50;99.90
18876;DHT22;9570;50.854;13.778;2023-10-31T03:30:22;13.50;99.90
18876;DHT22;9570;50.854;13.778;2023-10-31T03:32:48;13.30;99.90
18876;DHT22;9570;50.854;13.778;2023-10-31T03:35:14;13.20;99.90
18876;DHT22;9570;50.854;13.778;2023-10-31T03:37:39;13.20;99.90
18876;DHT22;9570;50.854;13.778;2023-10-31T03:40:10;13.30;99.90
18876;DHT22;9570;50.854;13.778;2023-10-31T03:42:36;13.20;99.90
18876;DHT22;9570;50.854;13.778;2023-10-31T03:45:02;13.30;99.90
18876;DHT22;9570;50.854;13.778;2023-10-31T03:47:27;13.40;99.90
18876;DHT22;9570;50.854;13.778;2023-10-31T03:49:53;13.40;99.90
18876;DHT22;9570;50.854;13.778;2023-10-31T03:52:18;13.40;99.90
18876;DHT22;9570;50.854;13.778;2023-10-31T03:54:45;13.40;99.90
18876;DHT22;9570;50.854;13.778;2023-10-31T03:57:10;13.40;99.90
18876;DHT22;9570;50.854;13.778;2023-10-31T03:59:37;13.40;99.90
18876;DHT22;9570;50.854;13.778;2023-10-31T04:02:03;13.20;99.90
18876;DHT22;9570;50.854;13.778;2023-10-31T04:04:28;13.20;99.90
18876;DHT22;9570;50.854;13.778;2023-10-31T04:06:54;13.10;99.90
18876;DHT22;9570;50.854;13.778;2023-10-31T04:09:19;13.10;99.90
18876;DHT22;9570;50.854;13.778;2023-10-31T04:11:45;13.10;99.90
18876;DHT22;9570;50.854;13.778;2023-10-31T04:14:10;13.00;99.90
18876;DHT22;9570;50.854;13.778;2023-10-31T04:16:41;13.00;99.90
18876;DHT22;9570;50.854;13.778;2023-10-31T04:19:11;13.00;99.90
18876;DHT22;9570;50.854;13.778;2023-10-31T04:21:37;13.00;99.90
18876;DHT22;9570;50.854;13.778;2023-10-31T04:24:03;13.00;99.90
18876;DHT22;9570;50.854;13.778;2023-10-31T04:26:29;13.00;99.90
18876;DHT22;9570;50.854;13.778;2023-10-31T04:28:55;13.00;99.90
18876;DHT22;9570;50.854;13.778;2023-10-31T04:31:20;12.90;99.90
18876;DHT22;9570;50.854;13.778;2023-10-31T04:33:45;12.90;99.90
18876;DHT22;9570;50.854;13.778;2023-10-31T04:36:11;12.80;99.90
18876;DHT22;9570;50.854;13.778;2023-10-31T04:38:37;12.90;99.90
18876;DHT22;9570;50.854;13.778;2023-10-31T04:41:03;12.90;99.90
18876;DHT22;9570;50.854;13.778;2023-10-31T04:43:29;12.80;99.90
18876;DHT22;9570;50.854;13.778;2023-10-31T04:45:54;12.70;99.90
18876;DHT22;9570;50.854;13.778;2023-10-31T04:48:20;12.70;99.90
18876;DHT22;9570;50.854;13.778;2023-10-31T04:50:45;12.80;99.90
18876;DHT22;9570;50.854;13.778;2023-10-31T04:53:11;12.90;99.90
18876;DHT22;9570;50.854;13.778;2023-10-31T04:55:36;12.70;99.90
18876;DHT22;9570;50.854;13.778;2023-10-31T04:58:02;12.70;99.90
18876;DHT22;9570;50.854;13.778;2023-10-31T05:00:27;12.70;99.90
18876;DHT22;9570;50.854;13.778;2023-10-31T05:02:53;12.70;99.90
18876;DHT22;9570;50.854;13.778;2023-10-31T05:05:19;12.70;99.90
18876;DHT22;9570;50.854;13.778;2023-10-31T05:07:44;12.70;99.90
18876;DHT22;9570;50.854;13.778;2023-10-31T05:10:10;12.60;99.90
18876;DHT22;9570;50.854;13.778;2023-10-31T05:12:36;12.60;99.90
18876;DHT22;9570;50.854;13.778;2023-10-31T05:15:02;12.60;99.90
18876;DHT22;9570;50.854;13.778;2023-10-31T05:17:28;12.60;99.90
18876;DHT22;9570;50.854;13.778;2023-10-31T05:19:53;12.50;99.90
18876;DHT22;9570;50.854;13.778;2023-10-31T05:22:19;12.60;99.90
18876;DHT22;9570;50.854;13.778;2023-10-31T05:24:44;12.60;99.90
18876;DHT22;9570;50.854;13.778;2023-10-31T05:27:10;12.60;99.90
18876;DHT22;9570;50.854;13.778;2023-10-31T05:29:35;12.60;99.90
18876;DHT22;9570;50.854;13.778;2023-10-31T05:32:03;12.60;99.90
18876;DHT22;9570;50.854;13.778;2023-10-31T05:34:29;12.70;99.90
18876;DHT22;9570;50.854;13.778;2023-10-31T05:36:54;12.70;99.90
18876;DHT22;9570;50.854;13.778;2023-10-31T05:39:20;12.60;99.90
18876;DHT22;9570;50.854;13.778;2023-10-31T05:41:45;12.50;99.90
18876;DHT22;9570;50.854;13.778;2023-10-31T05:44:11;12.40;99.90
18876;DHT22;9570;50.854;13.778;2023-10-31T05:46:39;12.40;99.90
18876;DHT22;9570;50.854;13.778;2023-10-31T05:49:08;12.40;99.90
18876;DHT22;9570;50.854;13.778;2023-10-31T05:51:33;12.50;99.90
18876;DHT22;9570;50.854;13.778;2023-10-31T05:54:00;12.50;99.90
18876;DHT22;9570;50.854;13.778;2023-10-31T05:56:26;12.60;99.90
18876;DHT22;9570;50.854;13.778;2023-10-31T05:58:52;12.40;99.90
18876;DHT22;9570;50.854;13.778;2023-10-31T06:01:17;12.40;99.90
18876;DHT22;9570;50.854;13.778;2023-10-31T06:03:43;12.30;99.90
18876;DHT22;9570;50.854;13.778;2023-10-31T06:06:10;12.30;99.90
18876;DHT22;9570;50.854;13.778;2023-10-31T06:08:36;12.40;99.90
18876;DHT22;9570;50.854;13.778;2023-10-31T06:11:03;12.40;99.90
18876;DHT22;9570;50.854;13.778;2023-10-31T06:13:29;12.40;99.90
18876;DHT22;9570;50.854;13.778;2023-10-31T06:15:56;12.30;99.90
18876;DHT22;9570;50.854;13.778;2023-10-31T06:18:23;12.30;99.90
18876;DHT22;9570;50.854;13.778;2023-10-31T06:20:49;12.30;99.90
18876;DHT22;9570;50.854;13.778;2023-10-31T06:23:14;12.30;99.90
18876;DHT22;9570;50.854;13.778;2023-10-31T06:25:40;12.30;99.90
18876;DHT22;9570;50.854;13.778;2023-10-31T06:28:05;12.40;99.90
18876;DHT22;9570;50.854;13.778;2023-10-31T06:30:31;12.50;99.90
18876;DHT22;9570;50.854;13.778;2023-10-31T06:32:57;12.50;99.90
18876;DHT22;9570;50.854;13.778;2023-10-31T06:35:23;12.60;99.90
18876;DHT22;9570;50.854;13.778;2023-10-31T06:37:50;12.40;99.90
18876;DHT22;9570;50.854;13.778;2023-10-31T06:40:16;12.40;99.90
18876;DHT22;9570;50.854;13.778;2023-10-31T06:42:42;12.40;99.90
18876;DHT22;9570;50.854;13.778;2023-10-31T06:45:07;12.40;99.90
18876;DHT22;9570;50.854;13.778;2023-10-31T06:47:33;12.50;99.90
18876;DHT22;9570;50.854;13.778;2023-10-31T06:49:59;12.60;99.90
18876;DHT22;9570;50.854;13.778;2023-10-31T06:52:24;12.50;99.90
18876;DHT22;9570;50.854;13.778;2023-10-31T06:54:49;12.40;99.90
18876;DHT22;9570;50.854;13.778;2023-10-31T06:57:15;12.30;99.90
18876;DHT22;9570;50.854;13.778;2023-10-31T06:59:41;12.40;99.90
18876;DHT22;9570;50.854;13.778;2023-10-31T07:02:07;12.30;99.90
18876;DHT22;9570;50.854;13.778;2023-10-31T07:04:32;12.30;99.90
18876;DHT22;9570;50.854;13.778;2023-10-31T07:06:58;12.40;99.90
18876;DHT22;9570;50.854;13.778;2023-10-31T07:09:25;12.40;99.90
18876;DHT22;9570;50.854;13.778;2023-10-31T07:11:51;12.30;99.90
18876;DHT22;9570;50.854;13.778;2023-10-31T07:14:17;12.30;99.90
18876;DHT22;9570;50.854;13.778;2023-10-31T07:16:42;12.30;99.90
18876;DHT22;9570;50.854;13.778;2023-10-31T07:19:10;12.10;99.90
18876;DHT22;9570;50.854;13.778;2023-10-31T07:21:35;12.10;99.90
18876;DHT22;9570;50.854;13.778;2023-10-31T07:24:01;12.10;99.90
18876;DHT22;9570;50.854;13.778;2023-10-31T07:26:26;12.00;99.90
18876;DHT22;9570;50.854;13.778;2023-10-31T07:28:52;12.10;99.90
18876;DHT22;9570;50.854;13.778;2023-10-31T07:31:18;12.10;99.90
18876;DHT22;9570;50.854;13.778;2023-10-31T07:33:44;12.10;99.90
18876;DHT22;9570;50.854;13.778;2023-10-31T07:36:10;12.20;99.90
18876;DHT22;9570;50.854;13.778;2023-10-31T07:38:36;12.00;99.90
18876;DHT22;9570;50.854;13.778;2023-10-31T07:41:01;12.00;99.90
18876;DHT22;9570;50.854;13.778;2023-10-31T07:43:27;12.10;99.90
18876;DHT22;9570;50.854;13.778;2023-10-31T07:45:52;12.10;99.90
18876;DHT22;9570;50.854;13.778;2023-10-31T07:48:18;12.10;99.90
18876;DHT22;9570;50.854;13.778;2023-10-31T07:50:44;12.10;99.90
18876;DHT22;9570;50.854;13.778;2023-10-31T07:53:09;12.00;99.90
18876;DHT22;9570;50.854;13.778;2023-10-31T07:55:35;12.00;99.90
18876;DHT22;9570;50.854;13.778;2023-10-31T07:58:00;12.00;99.90
18876;DHT22;9570;50.854;13.778;2023-10-31T08:00:26;12.10;99.90
18876;DHT22;9570;50.854;13.778;2023-10-31T08:02:51;12.10;99.90
18876;DHT22;9570;50.854;13.778;2023-10-31T08:05:17;12.10;99.90
18876;DHT22;9570;50.854;13.778;2023-10-31T08:07:42;12.10;99.90
18876;DHT22;9570;50.854;13.778;2023-10-31T08:10:08;12.10;99.90
18876;DHT22;9570;50.854;13.778;2023-10-31T08:12:34;12.20;99.90
18876;DHT22;9570;50.854;13.778;2023-10-31T08:15:01;12.20;99.90
18876;DHT22;9570;50.854;13.778;2023-10-31T08:17:26;12.20;99.90
18876;DHT22;9570;50.854;13.778;2023-10-31T08:19:52;12.10;99.90
18876;DHT22;9570;50.854;13.778;2023-10-31T08:22:17;12.20;99.90
18876;DHT22;9570;50.854;13.778;2023-10-31T08:24:43;12.10;99.90
18876;DHT22;9570;50.854;13.778;2023-10-31T08:27:09;12.10;99.90
18876;DHT22;9570;50.854;13.778;2023-10-31T08:29:35;12.00;99.90
18876;DHT22;9570;50.854;13.778;2023-10-31T08:32:01;12.10;99.90
18876;DHT22;9570;50.854;13.778;2023-10-31T08:34:26;12.20;99.90
18876;DHT22;9570;50.854;13.778;2023-10-31T08:36:52;12.20;99.90
18876;DHT22;9570;50.854;13.778;2023-10-31T08:39:18;12.20;99.90
18876;DHT22;9570;50.854;13.778;2023-10-31T08:41:57;12.10;99.90
18876;DHT22;9570;50.854;13.778;2023-10-31T08:44:23;12.10;99.90
18876;DHT22;9570;50.854;13.778;2023-10-31T08:46:49;12.20;99.90
18876;DHT22;9570;50.854;13.778;2023-10-31T08:49:15;12.20;99.90
18876;DHT22;9570;50.854;13.778;2023-10-31T08:51:41;12.30;99.90
18876;DHT22;9570;50.854;13.778;2023-10-31T08:54:07;12.40;99.90
18876;DHT22;9570;50.854;13.778;2023-10-31T08:56:34;12.40;99.90
18876;DHT22;9570;50.854;13.778;2023-10-31T08:58:59;12.40;99.90
18876;DHT22;9570;50.854;13.778;2023-10-31T09:01:25;12.40;99.90
18876;DHT22;9570;50.854;13.778;2023-10-31T09:03:51;12.50;99.90
18876;DHT22;9570;50.854;13.778;2023-10-31T09:06:17;12.60;99.90
18876;DHT22;9570;50.854;13.778;2023-10-31T09:08:42;12.60;99.90
18876;DHT22;9570;50.854;13.778;2023-10-31T09:11:07;12.70;99.90
18876;DHT22;9570;50.854;13.778;2023-10-31T09:13:33;12.70;99.90
18876;DHT22;9570;50.854;13.778;2023-10-31T09:15:59;12.80;99.90
18876;DHT22;9570;50.854;13.778;2023-10-31T09:18:25;12.80;99.90
18876;DHT22;9570;50.854;13.778;2023-10-31T09:20:51;12.70;99.90
18876;DHT22;9570;50.854;13.778;2023-10-31T09:23:16;12.70;99.90
18876;DHT22;9570;50.854;13.778;2023-10-31T09:25:43;12.60;99.90
18876;DHT22;9570;50.854;13.778;2023-10-31T09:28:08;12.50;99.90
18876;DHT22;9570;50.854;13.778;2023-10-31T09:30:34;12.40;99.90
18876;DHT22;9570;50.854;13.778;2023-10-31T09:32:59;12.50;99.90
18876;DHT22;9570;50.854;13.778;2023-10-31T09:35:25;12.50;99.90
18876;DHT22;9570;50.854;13.778;2023-10-31T09:37:52;12.30;99.90
18876;DHT22;9570;50.854;13.778;2023-10-31T09:40:17;12.20;99.90
18876;DHT22;9570;50.854;13.778;2023-10-31T09:42:46;12.30;99.90
18876;DHT22;9570;50.854;13.778;2023-10-31T09:45:12;12.30;99.90
18876;DHT22;9570;50.854;13.778;2023-10-31T09:47:39;12.40;99.90
18876;DHT22;9570;50.854;13.778;2023-10-31T09:50:06;12.40;99.90
18876;DHT22;9570;50.854;13.778;2023-10-31T09:52:32;12.40;99.90
18876;DHT22;9570;50.854;13.778;2023-10-31T09:54:59;12.50;99.90
18876;DHT22;9570;50.854;13.778;2023-10-31T09:57:24;12.70;99.90
18876;DHT22;9570;50.854;13.778;2023-10-31T09:59:51;12.90;99.90
18876;DHT22;9570;50.854;13.778;2023-10-31T10:02:17;13.00;99.90
18876;DHT22;9570;50.854;13.778;2023-10-31T10:04:42;13.10;99.90
18876;DHT22;9570;50.854;13.778;2023-10-31T10:07:08;13.10;99.90
18876;DHT22;9570;50.854;13.778;2023-10-31T10:09:33;13.20;99.90
18876;DHT22;9570;50.854;13.778;2023-10-31T10:12:00;13.30;99.90
18876;DHT22;9570;50.854;13.778;2023-10-31T10:14:26;13.30;99.90
18876;DHT22;9570;50.854;13.778;2023-10-31T10:16:54;13.30;99.90
18876;DHT22;9570;50.854;13.778;2023-10-31T10:19:21;13.10;99.90
18876;DHT22;9570;50.854;13.778;2023-10-31T10:21:52;12.90;99.90
18876;DHT22;9570;50.854;13.778;2023-10-31T10:24:18;12.80;99.90
18876;DHT22;9570;50.854;13.778;2023-10-31T10:26:45;12.90;99.90
18876;DHT22;9570;50.854;13.778;2023-10-31T10:29:10;13.00;99.90
18876;DHT22;9570;50.854;13.778;2023-10-31T10:31:36;13.00;99.90
18876;DHT22;9570;50.854;13.778;2023-10-31T10:34:01;13.10;99.90
18876;DHT22;9570;50.854;13.778;2023-10-31T10:36:27;13.20;99.90
18876;DHT22;9570;50.854;13.778;2023-10-31T10:38:57;13.50;99.90
18876;DHT22;9570;50.854;13.778;2023-10-31T10:41:25;13.70;99.90
18876;DHT22;9570;50.854;13.778;2023-10-31T10:43:56;13.80;99.90
18876;DHT22;9570;50.854;13.778;2023-10-31T10:46:24;13.90;99.90
18876;DHT22;9570;50.854;13.778;2023-10-31T10:48:55;13.90;99.90
18876;DHT22;9570;50.854;13.778;2023-10-31T10:51:28;13.90;99.90
18876;DHT22;9570;50.854;13.778;2023-10-31T10:57:03;14.20;99.90
18876;DHT22;9570;50.854;13.778;2023-10-31T10:59:43;14.00;99.90
18876;DHT22;9570;50.854;13.778;2023-10-31T11:02:16;13.90;99.90
18876;DHT22;9570;50.854;13.778;2023-10-31T11:04:43;13.90;99.90
18876;DHT22;9570;50.854;13.778;2023-10-31T11:07:10;13.80;99.90
18876;DHT22;9570;50.854;13.778;2023-10-31T11:09:37;13.60;99.90
18876;DHT22;9570;50.854;13.778;2023-10-31T11:12:03;13.60;99.90
18876;DHT22;9570;50.854;13.778;2023-10-31T11:14:30;13.70;99.90
18876;DHT22;9570;50.854;13.778;2023-10-31T11:17:01;13.70;99.90
18876;DHT22;9570;50.854;13.778;2023-10-31T11:19:29;13.80;99.90
18876;DHT22;9570;50.854;13.778;2023-10-31T11:22:00;13.60;99.90
18876;DHT22;9570;50.854;13.778;2023-10-31T11:24:32;13.50;99.90
18876;DHT22;9570;50.854;13.778;2023-10-31T11:27:01;13.60;99.90
18876;DHT22;9570;50.854;13.778;2023-10-31T11:29:27;13.50;99.90
18876;DHT22;9570;50.854;13.778;2023-10-31T11:31:55;13.40;99.90
18876;DHT22;9570;50.854;13.778;2023-10-31T11:34:21;13.40;99.90
18876;DHT22;9570;50.854;13.778;2023-10-31T11:36:47;13.30;99.90
18876;DHT22;9570;50.854;13.778;2023-10-31T11:39:14;13.30;99.90
18876;DHT22;9570;50.854;13.778;2023-10-31T11:41:47;13.20;99.90
18876;DHT22;9570;50.854;13.778;2023-10-31T11:44:15;13.30;99.90
18876;DHT22;9570;50.854;13.778;2023-10-31T11:46:40;13.30;99.90
18876;DHT22;9570;50.854;13.778;2023-10-31T11:49:06;13.20;99.90
18876;DHT22;9570;50.854;13.778;2023-10-31T11:51:32;13.20;99.90
18876;DHT22;9570;50.854;13.778;2023-10-31T11:53:59;13.10;99.90
18876;DHT22;9570;50.854;13.778;2023-10-31T11:56:26;13.10;99.90
18876;DHT22;9570;50.854;13.778;2023-10-31T11:59:02;12.90;99.90
18876;DHT22;9570;50.854;13.778;2023-10-31T12:01:28;13.00;99.90
18876;DHT22;9570;50.854;13.778;2023-10-31T12:03:54;13.00;99.90
18876;DHT22;9570;50.854;13.778;2023-10-31T12:06:19;13.10;99.90
18876;DHT22;9570;50.854;13.778;2023-10-31T12:08:47;13.10;99.90
18876;DHT22;9570;50.854;13.778;2023-10-31T12:11:15;13.20;99.90
18876;DHT22;9570;50.854;13.778;2023-10-31T12:14:01;13.10;99.90
18876;DHT22;9570;50.854;13.778;2023-10-31T12:16:33;13.00;99.90
18876;DHT22;9570;50.854;13.778;2023-10-31T12:19:05;12.90;99.90
18876;DHT22;9570;50.854;13.778;2023-10-31T12:21:45;12.80;99.90
18876;DHT22;9570;50.854;13.778;2023-10-31T12:24:17;12.90;99.90
18876;DHT22;9570;50.854;13.778;2023-10-31T12:26:44;13.00;99.90
18876;DHT22;9570;50.854;13.778;2023-10-31T12:29:20;13.00;99.90
18876;DHT22;9570;50.854;13.778;2023-10-31T12:31:50;13.00;99.90
18876;DHT22;9570;50.854;13.778;2023-10-31T12:34:18;13.00;99.90
18876;DHT22;9570;50.854;13.778;2023-10-31T12:36:46;13.00;99.90
18876;DHT22;9570;50.854;13.778;2023-10-31T12:39:12;13.10;99.90
18876;DHT22;9570;50.854;13.778;2023-10-31T12:41:39;13.00;99.90
18876;DHT22;9570;50.854;13.778;2023-10-31T12:44:06;12.90;99.90
18876;DHT22;9570;50.854;13.778;2023-10-31T12:46:32;12.80;99.90
18876;DHT22;9570;50.854;13.778;2023-10-31T12:48:58;12.80;99.90
18876;DHT22;9570;50.854;13.778;2023-10-31T12:51:24;12.80;99.90
18876;DHT22;9570;50.854;13.778;2023-10-31T12:53:53;12.80;99.90
18876;DHT22;9570;50.854;13.778;2023-10-31T12:56:41;12.80;99.90
18876;DHT22;9570;50.854;13.778;2023-10-31T12:59:08;12.80;99.90
18876;DHT22;9570;50.854;13.778;2023-10-31T13:01:35;12.80;99.90
18876;DHT22;9570;50.854;13.778;2023-10-31T13:04:05;13.00;99.90
18876;DHT22;9570;50.854;13.778;2023-10-31T13:06:30;13.00;99.90
18876;DHT22;9570;50.854;13.778;2023-10-31T13:08:56;13.00;99.90
18876;DHT22;9570;50.854;13.778;2023-10-31T13:11:32;12.90;99.90
18876;DHT22;9570;50.854;13.778;2023-10-31T13:13:57;12.90;99.90
18876;DHT22;9570;50.854;13.778;2023-10-31T13:16:24;12.80;99.90
18876;DHT22;9570;50.854;13.778;2023-10-31T13:18:52;12.80;99.90
18876;DHT22;9570;50.854;13.778;2023-10-31T13:21:18;12.70;99.90
18876;DHT22;9570;50.854;13.778;2023-10-31T13:23:43;12.60;99.90
18876;DHT22;9570;50.854;13.778;2023-10-31T13:26:11;12.50;99.90
18876;DHT22;9570;50.854;13.778;2023-10-31T13:28:37;12.40;99.90
18876;DHT22;9570;50.854;13.778;2023-10-31T13:31:04;12.50;99.90
18876;DHT22;9570;50.854;13.778;2023-10-31T13:33:30;12.40;99.90
18876;DHT22;9570;50.854;13.778;2023-10-31T13:35:55;12.40;99.90
18876;DHT22;9570;50.854;13.778;2023-10-31T13:38:21;12.40;99.90
18876;DHT22;9570;50.854;13.778;2023-10-31T13:40:46;12.40;99.90
18876;DHT22;9570;50.854;13.778;2023-10-31T13:43:12;12.30;99.90
18876;DHT22;9570;50.854;13.778;2023-10-31T13:45:37;12.30;99.90
18876;DHT22;9570;50.854;13.778;2023-10-31T13:48:03;12.30;99.90
18876;DHT22;9570;50.854;13.778;2023-10-31T13:50:28;12.30;99.90
18876;DHT22;9570;50.854;13.778;2023-10-31T13:52:55;12.40;99.90
18876;DHT22;9570;50.854;13.778;2023-10-31T13:55:21;12.40;99.90
18876;DHT22;9570;50.854;13.778;2023-10-31T13:57:46;12.30;99.90
18876;DHT22;9570;50.854;13.778;2023-10-31T14:00:12;12.40;99.90
18876;DHT22;9570;50.854;13.778;2023-10-31T14:02:39;12.30;99.90
18876;DHT22;9570;50.854;13.778;2023-10-31T14:05:05;12.40;99.90
18876;DHT22;9570;50.854;13.778;2023-10-31T14:07:31;12.60;99.90
18876;DHT22;9570;50.854;13.778;2023-10-31T14:09:57;12.60;99.90
18876;DHT22;9570;50.854;13.778;2023-10-31T14:12:23;12.60;99.90
18876;DHT22;9570;50.854;13.778;2023-10-31T14:14:48;12.60;99.90
18876;DHT22;9570;50.854;13.778;2023-10-31T14:17:17;12.60;99.90
18876;DHT22;9570;50.854;13.778;2023-10-31T14:19:43;12.50;99.90
18876;DHT22;9570;50.854;13.778;2023-10-31T14:22:09;12.40;99.90
18876;DHT22;9570;50.854;13.778;2023-10-31T14:24:34;12.10;99.90
18876;DHT22;9570;50.854;13.778;2023-10-31T14:27:00;12.10;99.90
18876;DHT22;9570;50.854;13.778;2023-10-31T14:29:26;12.10;99.90
18876;DHT22;9570;50.854;13.778;2023-10-31T14:31:52;12.10;99.90
18876;DHT22;9570;50.854;13.778;2023-10-31T14:34:19;12.10;99.90
18876;DHT22;9570;50.854;13.778;2023-10-31T14:36:46;12.10;99.90
18876;DHT22;9570;50.854;13.778;2023-10-31T14:39:11;12.10;99.90
18876;DHT22;9570;50.854;13.778;2023-10-31T14:41:37;12.00;99.90
18876;DHT22;9570;50.854;13.778;2023-10-31T14:44:03;12.00;99.90
18876;DHT22;9570;50.854;13.778;2023-10-31T14:46:29;11.70;99.90
18876;DHT22;9570;50.854;13.778;2023-10-31T14:48:55;11.70;99.90
18876;DHT22;9570;50.854;13.778;2023-10-31T14:51:21;11.90;99.90
18876;DHT22;9570;50.854;13.778;2023-10-31T14:53:46;11.80;99.90
18876;DHT22;9570;50.854;13.778;2023-10-31T14:56:12;11.90;99.90
18876;DHT22;9570;50.854;13.778;2023-10-31T14:58:38;12.00;99.90
18876;DHT22;9570;50.854;13.778;2023-10-31T15:01:04;11.90;99.90
18876;DHT22;9570;50.854;13.778;2023-10-31T15:03:30;11.70;99.90
18876;DHT22;9570;50.854;13.778;2023-10-31T15:05:57;11.70;99.90
18876;DHT22;9570;50.854;13.778;2023-10-31T15:08:23;11.70;99.90
18876;DHT22;9570;50.854;13.778;2023-10-31T15:10:50;11.80;99.90
18876;DHT22;9570;50.854;13.778;2023-10-31T15:13:16;12.00;99.90
18876;DHT22;9570;50.854;13.778;2023-10-31T15:15:42;12.10;99.90
18876;DHT22;9570;50.854;13.778;2023-10-31T15:18:07;12.10;99.90
18876;DHT22;9570;50.854;13.778;2023-10-31T15:20:33;12.20;99.90
18876;DHT22;9570;50.854;13.778;2023-10-31T15:22:58;12.10;99.90
18876;DHT22;9570;50.854;13.778;2023-10-31T15:25:24;12.10;99.90
18876;DHT22;9570;50.854;13.778;2023-10-31T15:27:50;11.90;99.90